横田飛行場の過去48時間の天気

横田飛行場 (Yokota)

現在時刻: 8/4 05:44 JST (8/3 20:44 UTC) 以下の時間は現地時間です。

過去48時間のMETAR気象情報
時間 風向 風速(m/s) 視程 気温(℃) 湿度(%) 気圧(hPa) 天気現象
4 04:56 静穏 0 10km以上 22.6 89 1016.2
RJTY 031956Z AUTO 00000KT 10SM CLR 23/21 A3002 RMK AO2 SLP162 T02260207 FZRANO $